Time;durP1;ratioP1;P1;durP2;ratioP2;P2;SDS_P1;SDS_P2;PMS_P1;PMS_P2;Temp;Humidity;BMP_temperature;BMP_pressure;BME280_temperature;BME280_humidity;BME280_pressure;Samples;Min_cycle;Max_cycle;Signal;HPM_P1;HPM_P2
2022/07/07 00:00:29;;;;;;;3.83;2.08;;;;;24.40;101886.00;;;;5031645;28;20196;-80
2022/07/07 00:02:57;;;;;;;3.65;2.35;;;;;24.30;101884.00;;;;5039404;28;20215;-79
2022/07/07 00:05:24;;;;;;;3.45;2.38;;;;;24.30;101879.00;;;;5042118;28;20664;-79
2022/07/07 00:07:52;;;;;;;5.25;2.22;;;;;24.30;101872.00;;;;5030671;28;20204;-79
2022/07/07 00:10:20;;;;;;;2.42;2.20;;;;;24.30;101865.00;;;;5027348;28;20212;-79
2022/07/07 00:12:48;;;;;;;2.65;2.25;;;;;24.30;101864.00;;;;5034061;28;20199;-79
2022/07/07 00:15:17;;;;;;;2.90;2.42;;;;;24.30;101870.00;;;;5033713;28;20229;-79
2022/07/07 00:17:47;;;;;;;3.15;2.00;;;;;24.30;101862.00;;;;5037919;28;20677;-79
2022/07/07 00:20:15;;;;;;;3.42;2.92;;;;;24.30;101864.00;;;;5043799;28;20206;-80
2022/07/07 00:22:42;;;;;;;4.07;2.65;;;;;24.30;101855.00;;;;5035161;28;20204;-79
2022/07/07 00:25:10;;;;;;;2.67;2.45;;;;;24.30;101858.00;;;;5029370;28;20227;-78
2022/07/07 00:27:38;;;;;;;2.85;2.35;;;;;24.30;101857.00;;;;5031028;28;20203;-78
2022/07/07 00:30:06;;;;;;;2.90;2.17;;;;;24.30;101853.00;;;;5038528;28;20584;-79
2022/07/07 00:32:35;;;;;;;2.55;2.00;;;;;24.30;101856.00;;;;5029675;28;20195;-79
2022/07/07 00:35:02;;;;;;;2.45;2.22;;;;;24.30;101852.00;;;;5032910;28;20203;-78
2022/07/07 00:37:30;;;;;;;4.38;2.15;;;;;24.30;101846.00;;;;5029115;28;20227;-79
2022/07/07 00:39:57;;;;;;;3.47;1.73;;;;;24.30;101841.00;;;;5031939;28;20209;-80
2022/07/07 00:42:24;;;;;;;5.75;2.38;;;;;24.30;101842.00;;;;5030933;28;20206;-78
2022/07/07 00:44:52;;;;;;;4.05;1.90;;;;;24.30;101843.00;;;;5032628;28;20227;-79
2022/07/07 00:47:19;;;;;;;2.85;2.10;;;;;24.30;101840.00;;;;5029426;28;20215;-79
2022/07/07 00:49:49;;;;;;;2.65;2.08;;;;;24.30;101841.00;;;;5031683;28;20219;-79
2022/07/07 00:52:16;;;;;;;4.10;1.85;;;;;24.40;101828.00;;;;5039014;28;20203;-79
2022/07/07 00:54:52;;;;;;;2.47;1.42;;;;;24.30;101823.00;;;;5034019;28;20746;-79
2022/07/07 00:57:19;;;;;;;2.35;1.65;;;;;24.40;101823.00;;;;5049304;28;20633;-78
2022/07/07 00:59:46;;;;;;;3.25;1.60;;;;;24.40;101825.00;;;;5044565;28;20424;-79
2022/07/07 01:02:14;;;;;;;2.72;1.80;;;;;24.40;101821.00;;;;5038250;28;20204;-79
2022/07/07 01:04:42;;;;;;;3.88;1.70;;;;;24.40;101828.00;;;;5032423;28;20223;-79
2022/07/07 01:07:11;;;;;;;2.65;1.25;;;;;24.40;101827.00;;;;5031333;28;20200;-79
2022/07/07 01:09:39;;;;;;;1.98;1.33;;;;;24.40;101817.00;;;;5033682;28;20207;-79
2022/07/07 01:12:07;;;;;;;1.95;1.33;;;;;24.50;101813.00;;;;5041650;28;20219;-78
2022/07/07 01:14:34;;;;;;;2.60;1.30;;;;;24.50;101818.00;;;;5043304;28;20227;-79
2022/07/07 01:17:01;;;;;;;1.85;1.33;;;;;24.50;101808.00;;;;5036785;28;20206;-79
2022/07/07 01:19:29;;;;;;;1.73;1.00;;;;;24.50;101809.00;;;;5034839;28;20200;-80
2022/07/07 01:22:00;;;;;;;1.45;1.10;;;;;24.50;101804.00;;;;5039632;28;20232;-79
2022/07/07 01:24:31;;;;;;;4.45;1.13;;;;;24.50;101794.00;;;;5030414;28;20204;-80
2022/07/07 01:27:08;;;;;;;2.53;1.30;;;;;24.40;101793.00;;;;5028372;28;20196;-79
2022/07/07 01:29:37;;;;;;;2.05;1.08;;;;;24.50;101789.00;;;;5030281;28;20196;-78
2022/07/07 01:32:05;;;;;;;0.90;0.77;;;;;24.50;101786.00;;;;5029371;28;20200;-78
2022/07/07 01:34:32;;;;;;;1.92;0.98;;;;;24.50;101788.00;;;;5029988;28;20189;-79
2022/07/07 01:37:00;;;;;;;2.63;0.95;;;;;24.50;101796.00;;;;5036689;28;20212;-79
2022/07/07 01:39:28;;;;;;;1.33;1.13;;;;;24.50;101790.00;;;;5034498;28;20237;-78
2022/07/07 01:41:56;;;;;;;2.20;1.05;;;;;24.50;101785.00;;;;5040767;28;20219;-79
2022/07/07 01:44:23;;;;;;;1.80;1.05;;;;;24.50;101786.00;;;;5037887;28;20199;-78
2022/07/07 01:46:51;;;;;;;1.52;0.90;;;;;24.50;101785.00;;;;5036702;28;20195;-79
2022/07/07 01:49:19;;;;;;;1.23;0.73;;;;;24.50;101791.00;;;;5034482;28;21007;-79
2022/07/07 01:51:46;;;;;;;3.47;1.10;;;;;24.50;101797.00;;;;5032982;28;20746;-79
2022/07/07 01:54:13;;;;;;;4.70;0.90;;;;;24.50;101811.00;;;;5046401;28;20208;-79
2022/07/07 01:56:42;;;;;;;3.25;0.82;;;;;24.40;101816.00;;;;5039220;28;20207;-79
2022/07/07 01:59:09;;;;;;;2.17;0.90;;;;;24.40;101811.00;;;;5038204;28;20200;-80
2022/07/07 02:01:37;;;;;;;0.70;0.63;;;;;24.40;101811.00;;;;5037779;28;20192;-79
2022/07/07 02:04:04;;;;;;;1.67;0.60;;;;;24.30;101819.00;;;;5035926;28;20205;-79
2022/07/07 02:06:32;;;;;;;1.95;0.80;;;;;24.20;101814.00;;;;5029635;28;20728;-80
2022/07/07 02:08:59;;;;;;;0.80;0.50;;;;;24.20;101820.00;;;;5029810;28;20291;-79
2022/07/07 02:11:27;;;;;;;1.15;0.63;;;;;24.20;101809.00;;;;5030521;28;20200;-80
2022/07/07 02:13:56;;;;;;;1.95;0.60;;;;;24.10;101814.00;;;;5032108;28;20197;-80
2022/07/07 02:16:24;;;;;;;2.85;0.70;;;;;24.00;101816.00;;;;5033023;28;20197;-79
2022/07/07 02:18:54;;;;;;;0.95;0.60;;;;;24.00;101800.00;;;;5034507;28;20207;-79
2022/07/07 02:21:23;;;;;;;0.93;0.73;;;;;24.00;101797.00;;;;5034032;28;20658;-79
2022/07/07 02:23:52;;;;;;;2.70;0.60;;;;;23.90;101802.00;;;;5034490;28;20211;-80
2022/07/07 02:26:19;;;;;;;1.63;0.50;;;;;23.90;101801.00;;;;5033896;28;20232;-80
2022/07/07 02:28:47;;;;;;;0.70;0.50;;;;;23.90;101808.00;;;;5036096;28;20216;-79
2022/07/07 02:31:16;;;;;;;1.30;0.75;;;;;23.80;101801.00;;;;5033858;28;20204;-80
2022/07/07 02:33:44;;;;;;;2.55;0.88;;;;;23.80;101800.00;;;;5032184;28;20203;-79
2022/07/07 02:36:11;;;;;;;1.15;0.60;;;;;23.80;101800.00;;;;5032796;28;20596;-79
2022/07/07 02:38:39;;;;;;;3.78;0.60;;;;;23.80;101801.00;;;;5030541;28;20215;-80
2022/07/07 02:41:07;;;;;;;2.40;0.75;;;;;23.80;101804.00;;;;5035126;28;20196;-79
2022/07/07 02:43:34;;;;;;;0.90;0.60;;;;;23.70;101798.00;;;;5031784;28;20208;-79
2022/07/07 02:46:03;;;;;;;1.30;0.63;;;;;23.70;101804.00;;;;5032752;28;20760;-79
2022/07/07 02:48:32;;;;;;;1.42;0.73;;;;;23.60;101796.00;;;;5029623;28;20692;-80
2022/07/07 02:51:00;;;;;;;1.67;0.95;;;;;23.60;101795.00;;;;5027158;28;20207;-80
2022/07/07 02:53:27;;;;;;;1.20;0.80;;;;;23.60;101791.00;;;;5028839;28;20581;-80
2022/07/07 02:55:54;;;;;;;2.15;1.08;;;;;23.60;101795.00;;;;5032819;28;20866;-80
2022/07/07 02:58:23;;;;;;;1.02;0.93;;;;;23.50;101793.00;;;;5033140;28;20196;-80
2022/07/07 03:00:51;;;;;;;1.25;0.85;;;;;23.50;101792.00;;;;5037775;28;20250;-81
2022/07/07 03:03:19;;;;;;;0.85;0.70;;;;;23.50;101788.00;;;;5027895;28;20712;-81
2022/07/07 03:05:47;;;;;;;1.40;0.90;;;;;23.40;101785.00;;;;5027344;28;20223;-80
2022/07/07 03:08:15;;;;;;;1.35;0.85;;;;;23.40;101784.00;;;;5030087;28;20663;-80
2022/07/07 03:10:43;;;;;;;1.92;0.70;;;;;23.40;101778.00;;;;5033057;28;20192;-80
2022/07/07 03:13:10;;;;;;;0.85;0.82;;;;;23.40;101778.00;;;;5032924;28;20195;-80
2022/07/07 03:15:38;;;;;;;2.40;0.98;;;;;23.30;101782.00;;;;5035382;28;20204;-80
2022/07/07 03:18:05;;;;;;;2.53;1.00;;;;;23.30;101776.00;;;;5031056;28;20203;-80
2022/07/07 03:20:33;;;;;;;1.98;1.10;;;;;23.30;101779.00;;;;5028902;28;20206;-80
2022/07/07 03:23:01;;;;;;;2.78;0.80;;;;;23.30;101779.00;;;;5030325;28;20200;-82
2022/07/07 03:25:29;;;;;;;4.47;1.13;;;;;23.30;101775.00;;;;5036479;28;20211;-80
2022/07/07 03:27:56;;;;;;;2.47;1.00;;;;;23.30;101775.00;;;;5034260;28;20228;-81
2022/07/07 03:30:23;;;;;;;3.25;1.42;;;;;23.30;101770.00;;;;5031576;28;20199;-80
2022/07/07 03:32:50;;;;;;;1.35;0.90;;;;;23.20;101778.00;;;;5032756;28;20666;-81
2022/07/07 03:35:18;;;;;;;1.35;1.00;;;;;23.20;101777.00;;;;5029187;28;20204;-80
2022/07/07 03:37:45;;;;;;;2.22;0.90;;;;;23.20;101782.00;;;;5028575;28;20196;-80
2022/07/07 03:40:14;;;;;;;1.55;0.93;;;;;23.20;101779.00;;;;5033488;28;20196;-81
2022/07/07 03:42:43;;;;;;;3.58;1.80;;;;;23.20;101781.00;;;;5029335;28;20207;-80
2022/07/07 03:45:12;;;;;;;1.40;1.30;;;;;23.20;101785.00;;;;5029281;28;20199;-80
2022/07/07 03:47:40;;;;;;;3.08;1.23;;;;;23.20;101780.00;;;;5032962;28;20214;-80
2022/07/07 03:50:08;;;;;;;1.63;1.30;;;;;23.20;101784.00;;;;5030998;28;20203;-80
2022/07/07 03:52:36;;;;;;;2.33;1.10;;;;;23.10;101781.00;;;;5032618;28;20202;-79
2022/07/07 03:55:04;;;;;;;1.48;0.95;;;;;23.20;101784.00;;;;5031545;28;20709;-80
2022/07/07 03:57:32;;;;;;;3.58;1.00;;;;;23.10;101772.00;;;;5029995;28;20208;-79
2022/07/07 04:00:00;;;;;;;1.92;0.85;;;;;23.10;101771.00;;;;5031766;28;20192;-80
2022/07/07 04:02:27;;;;;;;4.45;1.45;;;;;23.10;101784.00;;;;5030932;28;20211;-79
2022/07/07 04:04:54;;;;;;;2.60;1.13;;;;;23.10;101782.00;;;;5037462;28;20222;-80
2022/07/07 04:07:22;;;;;;;2.25;0.70;;;;;23.10;101784.00;;;;5031131;28;20228;-80
2022/07/07 04:09:49;;;;;;;1.77;0.68;;;;;23.10;101785.00;;;;5034187;28;20180;-80
2022/07/07 04:12:16;;;;;;;3.38;0.77;;;;;23.10;101781.00;;;;5049829;28;20192;-79
2022/07/07 04:14:45;;;;;;;2.17;0.77;;;;;23.00;101781.00;;;;5033776;28;20835;-80
2022/07/07 04:17:12;;;;;;;0.93;0.40;;;;;23.00;101791.00;;;;5026556;28;20204;-80
2022/07/07 04:19:40;;;;;;;1.95;0.68;;;;;23.00;101791.00;;;;5026884;28;20208;-78
2022/07/07 04:22:07;;;;;;;1.63;0.73;;;;;23.00;101796.00;;;;5048709;28;20211;-80
2022/07/07 04:24:36;;;;;;;1.95;0.57;;;;;23.00;101796.00;;;;5041020;28;20720;-79
2022/07/07 04:27:08;;;;;;;2.83;0.47;;;;;23.00;101797.00;;;;5046264;28;20208;-80
2022/07/07 04:29:37;;;;;;;0.80;0.30;;;;;23.00;101799.00;;;;5041826;28;20214;-80
2022/07/07 04:32:08;;;;;;;1.77;0.40;;;;;22.90;101798.00;;;;5038944;28;20677;-79
2022/07/07 04:35:13;;;;;;;2.22;0.40;;;;;22.80;101800.00;;;;5038755;28;20204;-80
2022/07/07 04:37:45;;;;;;;3.33;0.30;;;;;22.90;101800.00;;;;5037525;28;20192;-80
2022/07/07 04:40:21;;;;;;;3.30;1.20;;;;;22.90;101810.00;;;;5043037;28;20191;-80
2022/07/07 04:42:57;;;;;;;2.08;0.22;;;;;22.90;101801.00;;;;5037135;28;20200;-79
2022/07/07 04:45:24;;;;;;;2.80;0.60;;;;;22.90;101809.00;;;;5060512;28;20195;-80
2022/07/07 04:47:59;;;;;;;1.67;0.25;;;;;22.90;101811.00;;;;5040559;28;20201;-80
2022/07/07 04:50:38;;;;;;;3.33;0.65;;;;;22.80;101817.00;;;;5042243;28;20201;-79
2022/07/07 04:53:20;;;;;;;3.08;0.95;;;;;22.80;101823.00;;;;5036127;28;20674;-80
2022/07/07 04:55:48;;;;;;;3.60;0.63;;;;;22.90;101823.00;;;;5035696;28;20228;-79
2022/07/07 04:58:31;;;;;;;3.65;0.60;;;;;22.80;101831.00;;;;5046411;28;20200;-79
2022/07/07 05:00:59;;;;;;;3.72;0.60;;;;;22.80;101845.00;;;;5035582;28;20194;-79
2022/07/07 05:03:30;;;;;;;2.10;0.50;;;;;22.80;101844.00;;;;5035258;28;20193;-81
2022/07/07 05:05:58;;;;;;;3.90;0.40;;;;;22.80;101850.00;;;;5034899;28;20208;-80
2022/07/07 05:08:29;;;;;;;2.72;0.30;;;;;22.80;101849.00;;;;5035686;28;20203;-81
2022/07/07 05:10:56;;;;;;;7.95;0.50;;;;;22.80;101859.00;;;;5034927;28;20258;-80
2022/07/07 05:13:23;;;;;;;2.30;0.32;;;;;22.80;101853.00;;;;5052118;28;20198;-81
2022/07/07 05:15:51;;;;;;;1.42;0.30;;;;;22.80;101855.00;;;;5049483;28;20196;-81
2022/07/07 05:18:18;;;;;;;2.53;0.40;;;;;22.80;101853.00;;;;5038276;28;20538;-81
2022/07/07 05:20:50;;;;;;;3.58;0.40;;;;;22.70;101861.00;;;;5042918;28;20199;-80
2022/07/07 05:23:26;;;;;;;6.85;0.88;;;;;22.70;101863.00;;;;5035928;28;20200;-80
2022/07/07 05:25:55;;;;;;;4.78;0.82;;;;;22.70;101863.00;;;;5036954;28;20227;-80
2022/07/07 05:28:22;;;;;;;5.15;0.88;;;;;22.80;101872.00;;;;5038418;28;20282;-80
2022/07/07 05:30:49;;;;;;;1.48;0.60;;;;;22.80;101877.00;;;;5047656;28;20254;-80
2022/07/07 05:33:17;;;;;;;5.43;0.65;;;;;22.70;101873.00;;;;5044916;28;20200;-81
2022/07/07 05:35:44;;;;;;;3.08;0.77;;;;;22.80;101879.00;;;;5045717;28;20216;-82
2022/07/07 05:38:13;;;;;;;3.15;0.57;;;;;22.70;101883.00;;;;5039597;28;20577;-81
2022/07/07 05:40:41;;;;;;;1.80;0.40;;;;;22.70;101883.00;;;;5037442;28;20193;-79
2022/07/07 05:43:08;;;;;;;4.65;0.75;;;;;22.70;101887.00;;;;5037590;28;20211;-82
2022/07/07 05:45:36;;;;;;;4.85;0.95;;;;;22.70;101893.00;;;;5030329;28;20682;-81
2022/07/07 05:48:04;;;;;;;2.50;0.65;;;;;22.70;101898.00;;;;5035978;28;20568;-80
2022/07/07 05:50:31;;;;;;;3.42;0.60;;;;;22.70;101895.00;;;;5032430;28;20207;-80
2022/07/07 05:52:58;;;;;;;5.65;0.90;;;;;22.80;101909.00;;;;5043161;28;20196;-82
2022/07/07 05:55:27;;;;;;;1.85;0.63;;;;;22.70;101902.00;;;;5042062;28;20235;-79
2022/07/07 05:57:54;;;;;;;2.25;0.60;;;;;22.80;101914.00;;;;5039979;28;20204;-79
2022/07/07 06:00:22;;;;;;;4.25;0.70;;;;;22.70;101917.00;;;;5030194;28;20200;-80
2022/07/07 06:02:50;;;;;;;1.83;0.80;;;;;22.70;101929.00;;;;5037895;28;20219;-80
2022/07/07 06:05:18;;;;;;;5.13;0.90;;;;;22.70;101941.00;;;;5047607;28;20195;-80
2022/07/07 06:07:46;;;;;;;3.47;0.63;;;;;22.60;101929.00;;;;5045700;28;20224;-78
2022/07/07 06:10:14;;;;;;;2.45;0.50;;;;;22.60;101932.00;;;;5037377;28;20203;-77
2022/07/07 06:12:43;;;;;;;2.85;0.77;;;;;22.50;101942.00;;;;5036379;28;20664;-77
2022/07/07 06:15:11;;;;;;;2.83;0.28;;;;;22.50;101953.00;;;;5035318;28;20357;-77
2022/07/07 06:17:39;;;;;;;2.92;0.47;;;;;22.50;101952.00;;;;5029605;28;20192;-77
2022/07/07 06:20:08;;;;;;;1.73;0.32;;;;;22.40;101939.00;;;;5029426;28;20246;-77
2022/07/07 06:22:36;;;;;;;1.33;0.55;;;;;22.40;101939.00;;;;5039551;28;20745;-77
2022/07/07 06:25:04;;;;;;;2.38;0.70;;;;;22.40;101940.00;;;;5029237;28;20211;-78
2022/07/07 06:27:31;;;;;;;3.97;0.70;;;;;22.40;101955.00;;;;5029240;28;20599;-78
2022/07/07 06:30:00;;;;;;;1.92;0.60;;;;;22.40;101951.00;;;;5028783;28;20219;-77
2022/07/07 06:32:27;;;;;;;2.92;0.75;;;;;22.50;101961.00;;;;5029241;28;20199;-77
2022/07/07 06:34:55;;;;;;;1.85;0.90;;;;;22.50;101967.00;;;;5029838;28;20204;-77
2022/07/07 06:37:22;;;;;;;1.42;0.60;;;;;22.50;101961.00;;;;5033339;28;20219;-77
2022/07/07 06:39:49;;;;;;;1.58;0.70;;;;;22.60;101960.00;;;;5045885;28;20195;-77
2022/07/07 06:42:17;;;;;;;1.45;0.70;;;;;22.60;101967.00;;;;5047703;28;20265;-77
2022/07/07 06:44:44;;;;;;;3.40;0.98;;;;;22.60;101978.00;;;;5043894;28;20207;-77
2022/07/07 06:47:13;;;;;;;1.92;0.50;;;;;22.60;101993.00;;;;5028753;28;20675;-77
2022/07/07 06:49:40;;;;;;;3.47;0.60;;;;;22.60;101993.00;;;;5028894;28;20689;-77
2022/07/07 06:52:08;;;;;;;3.95;1.13;;;;;22.60;101985.00;;;;5028897;28;20192;-77
2022/07/07 06:54:37;;;;;;;2.72;0.50;;;;;22.50;101981.00;;;;5027774;28;20298;-78
2022/07/07 06:57:05;;;;;;;1.05;0.32;;;;;22.60;102001.00;;;;5041842;28;20207;-79
2022/07/07 06:59:32;;;;;;;1.25;0.30;;;;;22.50;101994.00;;;;5039226;28;20211;-78
2022/07/07 07:01:59;;;;;;;3.38;0.30;;;;;22.50;101991.00;;;;5030939;28;20199;-78
2022/07/07 07:04:28;;;;;;;2.10;0.75;;;;;22.60;101995.00;;;;5035458;28;20192;-77
2022/07/07 07:06:55;;;;;;;1.55;0.47;;;;;22.60;101991.00;;;;5028263;28;20228;-78
2022/07/07 07:09:26;;;;;;;2.45;0.57;;;;;22.70;101992.00;;;;5040237;28;20196;-77
2022/07/07 07:11:54;;;;;;;0.68;0.35;;;;;22.70;101988.00;;;;5046738;28;20596;-78
2022/07/07 07:14:21;;;;;;;1.88;0.40;;;;;22.80;101996.00;;;;5040775;28;20667;-78
2022/07/07 07:16:48;;;;;;;2.40;0.60;;;;;22.80;102000.00;;;;5029711;28;20207;-78
2022/07/07 07:19:16;;;;;;;1.70;0.30;;;;;22.80;101998.00;;;;5028207;28;20208;-78
2022/07/07 07:21:44;;;;;;;2.22;0.52;;;;;22.90;102002.00;;;;5038129;28;20200;-78
2022/07/07 07:24:12;;;;;;;2.42;0.63;;;;;23.00;102015.00;;;;5032116;28;20663;-78
2022/07/07 07:26:40;;;;;;;2.60;0.38;;;;;23.10;102015.00;;;;5028162;28;20800;-78
2022/07/07 07:29:07;;;;;;;1.20;0.45;;;;;23.20;102019.00;;;;5028666;28;20291;-78
2022/07/07 07:31:36;;;;;;;1.95;0.38;;;;;23.20;102021.00;;;;5028216;28;20245;-78
2022/07/07 07:34:03;;;;;;;3.45;0.40;;;;;23.30;102024.00;;;;5027372;28;20211;-77
2022/07/07 07:36:30;;;;;;;6.38;1.02;;;;;23.40;102024.00;;;;5030148;28;20626;-78
2022/07/07 07:38:59;;;;;;;1.70;0.57;;;;;23.50;102025.00;;;;5038604;28;20211;-77
2022/07/07 07:41:26;;;;;;;4.60;0.40;;;;;23.60;102021.00;;;;5031732;28;20215;-79
2022/07/07 07:43:54;;;;;;;2.75;0.43;;;;;23.70;102024.00;;;;5031103;28;20222;-78
2022/07/07 07:46:21;;;;;;;3.22;0.55;;;;;23.70;102032.00;;;;5029071;28;20200;-78
2022/07/07 07:48:48;;;;;;;2.42;0.88;;;;;23.80;102044.00;;;;5027879;28;20204;-79
2022/07/07 07:51:16;;;;;;;1.00;0.28;;;;;23.80;102036.00;;;;5027479;28;20188;-77
2022/07/07 07:53:43;;;;;;;1.15;0.35;;;;;23.90;102038.00;;;;5035827;28;20210;-78
2022/07/07 07:56:11;;;;;;;2.88;0.50;;;;;23.80;102025.00;;;;5030030;28;20263;-78
2022/07/07 07:58:39;;;;;;;2.17;0.40;;;;;23.90;102030.00;;;;5032078;28;20199;-78
2022/07/07 08:01:06;;;;;;;2.50;0.85;;;;;23.90;102036.00;;;;5034230;28;20206;-78
2022/07/07 08:03:34;;;;;;;1.98;0.45;;;;;24.00;102043.00;;;;5037928;28;20693;-77
2022/07/07 08:06:01;;;;;;;1.58;0.40;;;;;24.00;102031.00;;;;5050036;28;20214;-77
2022/07/07 08:08:28;;;;;;;0.95;0.28;;;;;24.00;102032.00;;;;5038214;28;20223;-77
2022/07/07 08:10:56;;;;;;;2.75;0.60;;;;;24.10;102032.00;;;;5041727;28;20207;-79
2022/07/07 08:13:24;;;;;;;1.85;0.57;;;;;24.10;102039.00;;;;5035008;28;20207;-79
2022/07/07 08:15:52;;;;;;;1.42;0.43;;;;;24.00;102049.00;;;;5032435;28;20208;-78
2022/07/07 08:18:19;;;;;;;1.00;0.35;;;;;24.00;102064.00;;;;5046217;28;20200;-78
2022/07/07 08:20:47;;;;;;;0.68;0.20;;;;;23.90;102062.00;;;;5032002;28;20203;-77
2022/07/07 08:23:14;;;;;;;1.95;0.30;;;;;23.80;102057.00;;;;5034571;28;20200;-79
2022/07/07 08:25:42;;;;;;;2.30;0.38;;;;;23.80;102059.00;;;;5031503;28;21050;-77
2022/07/07 08:28:09;;;;;;;1.98;0.30;;;;;23.80;102064.00;;;;5042280;28;20223;-77
2022/07/07 08:30:38;;;;;;;2.92;0.22;;;;;23.70;102061.00;;;;5051128;28;20195;-77
2022/07/07 08:33:06;;;;;;;1.15;0.35;;;;;23.70;102056.00;;;;5035456;28;20670;-80
2022/07/07 08:35:34;;;;;;;1.00;0.22;;;;;23.70;102060.00;;;;5046356;28;20199;-80
2022/07/07 08:38:01;;;;;;;1.80;0.40;;;;;23.70;102068.00;;;;5031106;28;20196;-79
2022/07/07 08:40:29;;;;;;;1.08;0.30;;;;;23.70;102063.00;;;;5031197;28;20199;-78
2022/07/07 08:42:56;;;;;;;0.82;0.30;;;;;23.70;102064.00;;;;5036784;28;20207;-80
2022/07/07 08:45:23;;;;;;;2.13;0.30;;;;;23.70;102066.00;;;;5032293;28;20701;-79
2022/07/07 08:47:52;;;;;;;2.72;0.50;;;;;23.70;102073.00;;;;5035256;28;20227;-79
2022/07/07 08:50:20;;;;;;;1.38;0.30;;;;;23.70;102072.00;;;;5040481;28;20705;-79
2022/07/07 08:52:50;;;;;;;1.00;0.30;;;;;23.70;102080.00;;;;5030810;28;20586;-80
2022/07/07 08:55:22;;;;;;;1.63;0.30;;;;;23.80;102071.00;;;;5039496;28;20477;-79
2022/07/07 08:57:51;;;;;;;2.38;0.50;;;;;23.90;102075.00;;;;5031661;28;20254;-79
2022/07/07 09:00:19;;;;;;;0.93;0.15;;;;;24.00;102079.00;;;;5048352;28;20543;-80
2022/07/07 09:02:49;;;;;;;0.88;0.20;;;;;24.10;102075.00;;;;5037782;28;20210;-79
2022/07/07 09:05:18;;;;;;;1.33;0.30;;;;;24.10;102095.00;;;;5042935;28;20201;-79
2022/07/07 09:07:48;;;;;;;0.85;0.20;;;;;24.10;102102.00;;;;5038206;28;20224;-79
2022/07/07 09:10:29;;;;;;;1.75;0.30;;;;;24.00;102106.00;;;;5045578;28;20685;-79
2022/07/07 09:12:57;;;;;;;1.35;0.28;;;;;24.20;102109.00;;;;5035647;28;20199;-78
2022/07/07 09:15:24;;;;;;;1.48;0.40;;;;;24.20;102109.00;;;;5042059;28;20588;-78
2022/07/07 09:17:52;;;;;;;1.13;0.40;;;;;24.20;102117.00;;;;5030687;28;20663;-78
2022/07/07 09:20:20;;;;;;;1.95;0.40;;;;;24.20;102114.00;;;;5035855;28;20196;-79
2022/07/07 09:22:50;;;;;;;3.10;0.25;;;;;24.30;102112.00;;;;5036215;28;20675;-78
2022/07/07 09:25:22;;;;;;;1.17;0.20;;;;;24.30;102107.00;;;;5029595;28;20250;-79
2022/07/07 09:27:55;;;;;;;1.15;0.20;;;;;24.50;102105.00;;;;5039681;28;20227;-78
2022/07/07 09:30:35;;;;;;;0.80;0.25;;;;;24.60;102108.00;;;;5033319;28;20348;-78
2022/07/07 09:33:05;;;;;;;0.50;0.22;;;;;24.80;102110.00;;;;5034099;28;20204;-78
2022/07/07 09:38:24;;;;;;;0.38;0.10;;;;;24.90;102130.00;;;;5031815;28;20212;-79
2022/07/07 09:40:53;;;;;;;0.85;0.30;;;;;24.80;102140.00;;;;5030010;28;20196;-79
2022/07/07 09:43:22;;;;;;;1.30;0.40;;;;;24.80;102141.00;;;;5033868;28;20196;-78
2022/07/07 09:46:05;;;;;;;0.77;0.25;;;;;24.70;102142.00;;;;5030257;28;20196;-79
2022/07/07 09:48:33;;;;;;;0.93;0.43;;;;;24.70;102155.00;;;;5033491;28;20220;-79
2022/07/07 09:51:30;;;;;;;0.73;0.30;;;;;24.50;102168.00;;;;5033339;28;20210;-79
2022/07/07 09:54:00;;;;;;;0.60;0.40;;;;;24.60;102160.00;;;;5019109;28;20596;-79
2022/07/07 09:56:30;;;;;;;0.30;0.20;;;;;24.60;102160.00;;;;5036550;28;20215;-79
2022/07/07 09:58:58;;;;;;;1.55;0.32;;;;;24.70;102174.00;;;;5029248;28;20204;-78
2022/07/07 10:01:28;;;;;;;1.15;0.30;;;;;24.70;102168.00;;;;5032552;28;20225;-78
2022/07/07 10:04:00;;;;;;;2.15;0.88;;;;;24.70;102168.00;;;;5044746;28;20214;-78
2022/07/07 10:06:31;;;;;;;1.35;0.55;;;;;24.70;102178.00;;;;5041941;28;20211;-79
2022/07/07 10:09:01;;;;;;;0.65;0.50;;;;;24.70;102191.00;;;;5029894;28;20317;-79
2022/07/07 10:11:38;;;;;;;1.65;0.47;;;;;24.70;102193.00;;;;5029140;28;20196;-79
2022/07/07 10:14:14;;;;;;;2.03;0.60;;;;;24.70;102203.00;;;;5036716;28;20196;-79
2022/07/07 10:16:43;;;;;;;0.95;0.35;;;;;24.70;102200.00;;;;5028854;28;20196;-80
2022/07/07 10:19:12;;;;;;;1.10;0.40;;;;;24.70;102183.00;;;;5028160;28;20207;-79
2022/07/07 10:21:43;;;;;;;2.10;0.57;;;;;24.70;102197.00;;;;5029054;28;20244;-78
2022/07/07 10:24:12;;;;;;;2.20;0.60;;;;;24.80;102192.00;;;;5028999;28;20196;-78
2022/07/07 10:26:41;;;;;;;3.53;0.52;;;;;25.00;102201.00;;;;5036515;28;20212;-78
2022/07/07 10:29:09;;;;;;;1.60;0.55;;;;;25.10;102205.00;;;;5034423;28;20223;-79
2022/07/07 10:31:38;;;;;;;2.08;0.55;;;;;25.30;102220.00;;;;5040991;28;20191;-79
2022/07/07 10:34:06;;;;;;;3.75;0.77;;;;;25.30;102238.00;;;;5048569;28;20203;-79
2022/07/07 10:37:01;;;;;;;1.63;0.50;;;;;25.10;102253.00;;;;5043043;28;20208;-79
2022/07/07 10:39:32;;;;;;;1.95;0.60;;;;;25.10;102243.00;;;;5041278;28;20670;-79
2022/07/07 10:42:06;;;;;;;1.75;0.45;;;;;25.00;102237.00;;;;5033230;28;20273;-79
2022/07/07 10:44:34;;;;;;;2.67;0.95;;;;;24.90;102246.00;;;;5042751;28;20207;-79
2022/07/07 10:47:04;;;;;;;1.42;0.68;;;;;24.80;102251.00;;;;5048354;28;20199;-79
2022/07/07 10:49:39;;;;;;;1.83;0.63;;;;;24.70;102264.00;;;;5028303;28;20780;-79
2022/07/07 10:52:13;;;;;;;2.35;0.50;;;;;24.70;102269.00;;;;5028781;28;20203;-79
2022/07/07 10:54:42;;;;;;;3.05;0.65;;;;;24.70;102261.00;;;;5034482;28;20239;-79
2022/07/07 10:57:15;;;;;;;2.05;0.70;;;;;24.60;102264.00;;;;5037534;28;20191;-78
2022/07/07 11:00:14;;;;;;;0.95;0.55;;;;;24.50;102272.00;;;;5028364;28;20202;-79
2022/07/07 11:02:44;;;;;;;1.35;0.40;;;;;24.60;102268.00;;;;4981432;28;20613;-78
2022/07/07 11:05:34;;;;;;;1.75;0.47;;;;;24.60;102272.00;;;;5019685;28;20701;-78
2022/07/07 11:08:21;;;;;;;4.72;0.55;;;;;24.70;102272.00;;;;5034920;28;20222;-78
2022/07/07 11:10:52;;;;;;;1.13;0.30;;;;;24.80;102273.00;;;;5033037;28;20207;-78
2022/07/07 11:13:23;;;;;;;1.63;0.20;;;;;24.90;102287.00;;;;5031338;28;20207;-79
2022/07/07 11:15:51;;;;;;;5.00;0.57;;;;;24.90;102295.00;;;;5029123;28;20203;-79
2022/07/07 11:18:19;;;;;;;2.60;0.60;;;;;24.90;102298.00;;;;5028659;28;20207;-79
2022/07/07 11:21:00;;;;;;;0.73;0.40;;;;;24.80;102293.00;;;;5027456;28;20215;-79
2022/07/07 11:23:42;;;;;;;1.85;0.50;;;;;24.90;102295.00;;;;5029557;28;20199;-78
2022/07/07 11:26:10;;;;;;;0.65;0.22;;;;;25.00;102309.00;;;;5033572;28;20216;-79
2022/07/07 11:28:38;;;;;;;0.80;0.50;;;;;25.00;102306.00;;;;5027331;28;20697;-79
2022/07/07 11:31:07;;;;;;;1.92;0.40;;;;;25.00;102307.00;;;;5035289;28;20209;-79
2022/07/07 11:33:35;;;;;;;1.23;0.20;;;;;25.00;102305.00;;;;5028973;28;20199;-79
2022/07/07 11:36:17;;;;;;;0.90;0.40;;;;;24.90;102304.00;;;;5033174;28;20230;-78
2022/07/07 11:38:47;;;;;;;0.47;0.40;;;;;25.00;102302.00;;;;5032110;28;20200;-78
2022/07/07 11:41:15;;;;;;;2.20;0.35;;;;;25.00;102309.00;;;;5032575;28;20216;-79
2022/07/07 11:43:42;;;;;;;0.68;0.30;;;;;25.10;102318.00;;;;5027278;28;20702;-79
2022/07/07 11:46:10;;;;;;;0.73;0.30;;;;;25.10;102318.00;;;;5031615;28;20205;-79
2022/07/07 11:48:39;;;;;;;0.55;0.40;;;;;25.20;102326.00;;;;5031108;28;20960;-78
2022/07/07 11:51:07;;;;;;;2.47;0.30;;;;;25.30;102337.00;;;;5029659;28;20207;-78
2022/07/07 11:53:36;;;;;;;2.38;0.55;;;;;25.30;102348.00;;;;5027757;28;20204;-78
2022/07/07 11:56:06;;;;;;;1.92;0.25;;;;;25.30;102339.00;;;;5027932;28;20240;-78
2022/07/07 11:58:33;;;;;;;0.63;0.20;;;;;25.30;102360.00;;;;5032496;28;20220;-79
2022/07/07 12:01:01;;;;;;;3.10;0.38;;;;;25.20;102353.00;;;;5045765;28;20196;-79
2022/07/07 12:03:30;;;;;;;1.20;0.38;;;;;25.20;102355.00;;;;5035327;28;20382;-79
2022/07/07 12:05:58;;;;;;;0.70;0.30;;;;;25.10;102367.00;;;;5029314;28;20703;-79
2022/07/07 12:08:34;;;;;;;3.15;0.47;;;;;24.90;102354.00;;;;5032462;28;20262;-79
2022/07/07 12:11:01;;;;;;;3.10;0.60;;;;;25.00;102369.00;;;;5027911;28;20282;-79
2022/07/07 12:13:30;;;;;;;2.55;0.77;;;;;24.90;102363.00;;;;5032656;28;20192;-79
2022/07/07 12:15:58;;;;;;;2.47;0.70;;;;;24.90;102368.00;;;;5027992;28;20192;-79
2022/07/07 12:18:35;;;;;;;2.75;0.85;;;;;24.80;102365.00;;;;5028440;28;20680;-79
2022/07/07 12:21:05;;;;;;;6.57;1.08;;;;;24.90;102375.00;;;;5034034;28;20704;-79